createdAt,value
2017-10-07T00:00:35.213Z,89.9
2017-10-07T00:01:36.676Z,89.7
2017-10-07T00:02:58.176Z,89.2
2017-10-07T00:03:59.575Z,89.3
2017-10-07T00:05:21.085Z,89.2
2017-10-07T00:06:22.484Z,89.1
2017-10-07T00:07:43.975Z,89.3
2017-10-07T00:08:45.374Z,89.4
2017-10-07T00:10:06.882Z,89.3
2017-10-07T00:11:08.285Z,89.3
2017-10-07T00:12:29.773Z,89.3
2017-10-07T00:13:31.171Z,89.2
2017-10-07T00:14:52.780Z,89.3
2017-10-07T00:15:54.182Z,89.1
2017-10-07T00:17:15.737Z,89.2
2017-10-07T00:18:17.138Z,88.7
2017-10-07T00:19:38.648Z,88.8
2017-10-07T00:20:40.049Z,88.1
2017-10-07T00:22:01.535Z,88.9
2017-10-07T00:23:02.938Z,88.6
2017-10-07T00:24:24.444Z,89.0
2017-10-07T00:25:25.844Z,89.2
2017-10-07T00:26:47.328Z,89.3
2017-10-07T00:27:48.736Z,89.3
2017-10-07T00:29:10.226Z,89.2
2017-10-07T00:30:11.703Z,89.4
2017-10-07T00:31:33.209Z,89.4
2017-10-07T00:32:34.712Z,89.3
2017-10-07T00:33:56.223Z,89.0
2017-10-07T00:34:57.623Z,89.1
2017-10-07T00:36:19.217Z,89.3
2017-10-07T00:37:20.656Z,89.9
2017-10-07T00:38:42.150Z,89.5
2017-10-07T00:39:43.546Z,89.4
2017-10-07T00:41:05.115Z,89.3
2017-10-07T00:42:06.601Z,89.4
2017-10-07T00:43:28.090Z,89.3
2017-10-07T00:44:29.490Z,89.1
2017-10-07T00:45:51.000Z,89.3
2017-10-07T00:46:52.402Z,89.3
2017-10-07T00:48:13.892Z,88.6
2017-10-07T00:49:15.290Z,88.6
2017-10-07T00:50:36.799Z,89.1
2017-10-07T00:51:38.199Z,89.3
2017-10-07T00:52:59.683Z,89.3
2017-10-07T00:54:01.082Z,89.6
2017-10-07T00:55:22.589Z,90.5
2017-10-07T00:56:23.988Z,91.0
2017-10-07T00:57:45.477Z,90.9
2017-10-07T00:58:46.879Z,91.0
2017-10-07T01:00:08.384Z,91.4
2017-10-07T01:01:09.786Z,91.7
2017-10-07T01:02:31.274Z,91.8
2017-10-07T01:03:32.993Z,92.0
2017-10-07T01:04:54.540Z,92.1
2017-10-07T01:05:55.937Z,92.3
2017-10-07T01:07:17.425Z,92.0
2017-10-07T01:08:18.825Z,92.1
2017-10-07T01:09:40.332Z,92.5
2017-10-07T01:10:41.734Z,92.3
2017-10-07T01:12:03.224Z,92.1
2017-10-07T01:13:04.622Z,92.4
2017-10-07T01:14:26.117Z,92.4
2017-10-07T01:15:27.518Z,92.3
2017-10-07T01:16:49.026Z,93.0
2017-10-07T01:17:50.427Z,92.1
2017-10-07T01:19:11.917Z,92.4
2017-10-07T01:20:13.317Z,92.6
2017-10-07T01:21:34.826Z,92.9
2017-10-07T01:22:36.227Z,93.0
2017-10-07T01:23:57.712Z,92.5
2017-10-07T01:24:59.112Z,92.4
2017-10-07T01:26:20.619Z,92.7
2017-10-07T01:27:22.021Z,92.5
2017-10-07T01:28:43.509Z,92.6
2017-10-07T01:29:44.908Z,92.8
2017-10-07T01:31:06.414Z,92.4
2017-10-07T01:32:07.817Z,92.3
2017-10-07T01:33:29.299Z,92.7
2017-10-07T01:34:30.700Z,92.5
2017-10-07T01:35:52.206Z,93.0
2017-10-07T01:36:53.610Z,92.7
2017-10-07T01:38:15.091Z,93.1
2017-10-07T01:39:16.493Z,92.3
2017-10-07T01:40:38.000Z,91.8
2017-10-07T01:41:39.402Z,91.8
2017-10-07T01:43:00.890Z,91.5
2017-10-07T01:44:02.292Z,91.5
2017-10-07T01:45:23.797Z,91.0
2017-10-07T01:46:25.197Z,91.1
2017-10-07T01:47:46.688Z,91.2
2017-10-07T01:48:48.087Z,91.0
2017-10-07T01:50:09.591Z,90.9
2017-10-07T01:51:10.993Z,91.0
2017-10-07T01:52:32.482Z,90.5
2017-10-07T01:53:33.882Z,90.4
2017-10-07T01:54:55.370Z,90.9
2017-10-07T01:55:56.768Z,90.8
2017-10-07T01:57:18.277Z,90.5
2017-10-07T01:58:19.678Z,90.6
2017-10-07T01:59:41.162Z,90.7
2017-10-07T02:00:42.562Z,90.6
2017-10-07T02:02:04.069Z,90.5
2017-10-07T02:03:05.469Z,90.5
2017-10-07T02:04:26.960Z,91.0
2017-10-07T02:05:28.638Z,90.6
2017-10-07T02:06:50.131Z,90.4
2017-10-07T02:07:51.530Z,90.9
2017-10-07T02:09:13.017Z,91.0
2017-10-07T02:10:14.417Z,90.9
2017-10-07T02:11:35.926Z,91.1
2017-10-07T02:12:37.329Z,91.1
2017-10-07T02:13:58.817Z,91.7
2017-10-07T02:15:00.308Z,91.8
2017-10-07T02:16:22.035Z,92.2
2017-10-07T02:17:23.448Z,92.2
2017-10-07T02:18:44.937Z,92.1
2017-10-07T02:19:46.338Z,92.0
2017-10-07T02:21:07.843Z,92.2
2017-10-07T02:22:09.243Z,91.7
2017-10-07T02:23:30.730Z,91.1
2017-10-07T02:24:32.127Z,91.6
2017-10-07T02:25:53.635Z,91.6
2017-10-07T02:26:55.036Z,91.5
2017-10-07T02:28:16.518Z,91.4
2017-10-07T02:29:17.919Z,90.5
2017-10-07T02:30:39.406Z,91.5
2017-10-07T02:31:40.805Z,91.5
2017-10-07T02:33:02.312Z,91.2
2017-10-07T02:34:03.715Z,91.3
2017-10-07T02:35:25.199Z,91.3
2017-10-07T02:36:26.598Z,91.2
2017-10-07T02:37:48.104Z,91.4
2017-10-07T02:38:49.509Z,91.6
2017-10-07T02:40:10.991Z,90.9
2017-10-07T02:41:12.391Z,90.8
2017-10-07T02:42:33.895Z,91.0
2017-10-07T02:43:35.297Z,90.5
2017-10-07T02:44:56.790Z,91.0
2017-10-07T02:45:58.186Z,90.8
2017-10-07T02:47:19.692Z,91.6
2017-10-07T02:48:21.093Z,90.8
2017-10-07T02:49:42.581Z,91.1
2017-10-07T02:50:43.980Z,91.4
2017-10-07T02:52:05.487Z,90.9
2017-10-07T02:53:06.888Z,90.6
2017-10-07T02:54:28.380Z,90.6
2017-10-07T02:55:29.787Z,91.3
2017-10-07T02:56:51.288Z,90.5
2017-10-07T02:57:52.692Z,90.9
2017-10-07T02:59:14.176Z,90.4
2017-10-07T03:00:15.577Z,90.7
2017-10-07T03:01:37.079Z,89.9
2017-10-07T03:02:38.477Z,90.2
2017-10-07T03:03:59.965Z,90.8
2017-10-07T03:05:01.364Z,90.8
2017-10-07T03:06:22.880Z,90.6
2017-10-07T03:07:24.276Z,90.8
2017-10-07T03:08:45.758Z,90.7
2017-10-07T03:09:47.157Z,89.8
2017-10-07T03:11:08.645Z,90.5
2017-10-07T03:12:10.044Z,90.5
2017-10-07T03:13:31.550Z,91.0
2017-10-07T03:14:32.952Z,90.7
2017-10-07T03:15:54.437Z,90.4
2017-10-07T03:16:55.833Z,90.2
2017-10-07T03:18:17.338Z,91.1
2017-10-07T03:19:18.736Z,90.5
2017-10-07T03:20:40.219Z,90.5
2017-10-07T03:21:41.620Z,90.8
2017-10-07T03:23:03.128Z,90.4
2017-10-07T03:24:04.530Z,90.6
2017-10-07T03:25:26.021Z,90.2
2017-10-07T03:26:27.415Z,90.5
2017-10-07T03:27:48.922Z,90.8
2017-10-07T03:28:50.324Z,90.5
2017-10-07T03:30:11.810Z,90.9
2017-10-07T03:31:13.209Z,90.8
2017-10-07T03:32:34.714Z,90.6
2017-10-07T03:33:36.113Z,90.5
2017-10-07T03:34:57.598Z,90.8
2017-10-07T03:35:58.999Z,90.6
2017-10-07T03:37:20.507Z,90.1
2017-10-07T03:38:21.905Z,90.4
2017-10-07T03:39:43.392Z,90.2
2017-10-07T03:40:44.792Z,90.6
2017-10-07T03:42:06.296Z,90.2
2017-10-07T03:43:07.697Z,90.2
2017-10-07T03:44:29.185Z,90.5
2017-10-07T03:45:30.586Z,90.3
2017-10-07T03:46:52.097Z,89.9
2017-10-07T03:47:53.496Z,90.1
2017-10-07T03:49:14.981Z,89.5
2017-10-07T03:50:16.380Z,89.5
2017-10-07T03:51:37.865Z,89.6
2017-10-07T03:52:39.266Z,89.5
2017-10-07T03:54:00.768Z,89.6
2017-10-07T03:55:02.169Z,89.9
2017-10-07T03:56:23.655Z,89.5
2017-10-07T03:57:25.054Z,89.9
2017-10-07T03:58:46.565Z,89.5
2017-10-07T03:59:47.965Z,89.9
2017-10-07T04:01:09.452Z,89.3
2017-10-07T04:02:10.852Z,89.0
2017-10-07T04:03:32.360Z,89.0
2017-10-07T04:04:33.763Z,89.3
2017-10-07T04:05:55.246Z,89.2
2017-10-07T04:06:56.647Z,89.1
2017-10-07T04:08:18.155Z,89.3
2017-10-07T04:09:19.556Z,89.4
2017-10-07T04:10:41.041Z,89.3
2017-10-07T04:11:42.441Z,89.2
2017-10-07T04:13:03.944Z,89.3
2017-10-07T04:14:05.344Z,89.1
2017-10-07T04:15:26.828Z,88.9
2017-10-07T04:16:28.233Z,89.1
2017-10-07T04:17:49.739Z,89.3
2017-10-07T04:18:51.148Z,89.2
2017-10-07T04:20:12.629Z,89.4
2017-10-07T04:21:14.032Z,89.1
2017-10-07T04:22:35.542Z,89.3
2017-10-07T04:23:36.942Z,89.1
2017-10-07T04:24:58.435Z,89.2
2017-10-07T04:25:59.824Z,88.8
2017-10-07T04:27:21.333Z,88.3
2017-10-07T04:28:22.732Z,88.8
2017-10-07T04:29:44.218Z,88.7
2017-10-07T04:30:45.619Z,88.7
2017-10-07T04:32:07.135Z,88.5
2017-10-07T04:33:08.536Z,88.2
2017-10-07T04:34:30.023Z,88.7
2017-10-07T04:35:31.422Z,88.5
2017-10-07T04:36:52.910Z,88.5
2017-10-07T04:37:54.307Z,88.2
2017-10-07T04:39:15.813Z,88.2
2017-10-07T04:40:17.219Z,88.3
2017-10-07T04:41:38.703Z,88.1
2017-10-07T04:42:40.105Z,88.3
2017-10-07T04:44:01.609Z,87.8
2017-10-07T04:45:03.009Z,88.1
2017-10-07T04:46:24.495Z,88.1
2017-10-07T04:47:25.894Z,88.1
2017-10-07T04:48:47.406Z,88.1
2017-10-07T04:49:48.803Z,88.1
2017-10-07T04:51:10.287Z,88.6
2017-10-07T04:52:11.688Z,87.9
2017-10-07T04:53:33.195Z,88.0
2017-10-07T04:54:34.593Z,88.6
2017-10-07T04:55:56.084Z,88.3
2017-10-07T04:56:57.480Z,88.3
2017-10-07T04:58:18.984Z,88.1
2017-10-07T04:59:20.817Z,88.0
2017-10-07T05:00:42.293Z,88.8
2017-10-07T05:01:43.692Z,88.5
2017-10-07T05:03:05.200Z,88.9
2017-10-07T05:04:06.598Z,89.3
2017-10-07T05:05:28.085Z,89.2
2017-10-07T05:06:29.482Z,88.4
2017-10-07T05:07:50.991Z,88.7
2017-10-07T05:08:52.393Z,88.8
2017-10-07T05:10:13.878Z,88.6
2017-10-07T05:11:15.277Z,89.0
2017-10-07T05:12:36.786Z,88.3
2017-10-07T05:13:38.186Z,88.9
2017-10-07T05:14:59.670Z,88.6
2017-10-07T05:16:01.072Z,88.4
2017-10-07T05:17:22.559Z,88.0
2017-10-07T05:18:23.958Z,88.7
2017-10-07T05:19:45.465Z,88.4
2017-10-07T05:20:46.871Z,88.2
2017-10-07T05:22:08.358Z,87.9
2017-10-07T05:23:09.758Z,88.1
2017-10-07T05:24:31.267Z,88.3
2017-10-07T05:25:32.669Z,88.0
2017-10-07T05:26:54.154Z,88.8
2017-10-07T05:27:55.553Z,88.8
2017-10-07T05:29:17.060Z,88.7
2017-10-07T05:30:18.462Z,88.7
2017-10-07T05:31:39.947Z,88.6
2017-10-07T05:32:41.347Z,88.3
2017-10-07T05:34:02.855Z,88.1
2017-10-07T05:35:04.272Z,88.1
2017-10-07T05:36:25.740Z,88.0
2017-10-07T05:37:27.140Z,87.7
2017-10-07T05:38:48.649Z,87.5
2017-10-07T05:39:50.053Z,87.2
2017-10-07T05:41:11.543Z,87.5
2017-10-07T05:42:12.940Z,87.2
2017-10-07T05:43:34.451Z,87.2
2017-10-07T05:44:35.852Z,87.4
2017-10-07T05:45:57.343Z,87.3
2017-10-07T05:46:58.742Z,87.3
2017-10-07T05:48:20.253Z,87.5
2017-10-07T05:49:21.657Z,87.3
2017-10-07T05:50:43.147Z,87.5
2017-10-07T05:51:44.545Z,87.2
2017-10-07T05:53:06.055Z,87.3
2017-10-07T05:54:07.461Z,87.5
2017-10-07T05:55:28.953Z,87.4
2017-10-07T05:56:30.355Z,87.2
2017-10-07T05:57:51.865Z,87.5
2017-10-07T05:58:53.267Z,87.3
2017-10-07T06:00:14.777Z,86.6
2017-10-07T06:01:16.182Z,87.1
2017-10-07T06:02:37.668Z,86.8
2017-10-07T06:03:39.074Z,86.6
2017-10-07T06:05:00.583Z,87.3
2017-10-07T06:06:01.990Z,87.1
2017-10-07T06:07:23.481Z,86.5
2017-10-07T06:08:24.885Z,86.5
2017-10-07T06:09:46.397Z,86.6
2017-10-07T06:10:47.802Z,87.1
2017-10-07T06:12:09.291Z,86.9
2017-10-07T06:13:10.693Z,87.1
2017-10-07T06:14:32.202Z,87.0
2017-10-07T06:15:33.606Z,86.9
2017-10-07T06:16:55.099Z,87.0
2017-10-07T06:17:56.501Z,86.9
2017-10-07T06:19:18.009Z,86.9
2017-10-07T06:20:19.411Z,87.2
2017-10-07T06:21:40.902Z,86.7
2017-10-07T06:22:42.303Z,87.1
2017-10-07T06:24:03.811Z,86.9
2017-10-07T06:25:05.217Z,87.2
2017-10-07T06:26:26.710Z,86.1
2017-10-07T06:27:28.114Z,86.6
2017-10-07T06:28:49.618Z,86.8
2017-10-07T06:29:51.022Z,86.6
2017-10-07T06:31:12.512Z,86.6
2017-10-07T06:32:13.914Z,86.4
2017-10-07T06:33:35.423Z,86.3
2017-10-07T06:34:36.828Z,85.9
2017-10-07T06:35:58.310Z,86.1
2017-10-07T06:36:59.713Z,86.0
2017-10-07T06:38:21.224Z,85.6
2017-10-07T06:39:22.630Z,85.8
2017-10-07T06:40:44.121Z,85.5
2017-10-07T06:41:45.523Z,85.8
2017-10-07T06:43:07.014Z,85.9
2017-10-07T06:44:08.419Z,86.4
2017-10-07T06:45:29.931Z,86.5
2017-10-07T06:46:31.337Z,86.0
2017-10-07T06:47:52.824Z,85.8
2017-10-07T06:48:54.230Z,85.9
2017-10-07T06:50:15.743Z,85.7
2017-10-07T06:51:17.148Z,86.0
2017-10-07T06:52:38.640Z,85.8
2017-10-07T06:53:40.045Z,85.9
2017-10-07T06:55:01.556Z,85.2
2017-10-07T06:56:02.962Z,85.2
2017-10-07T06:57:24.457Z,84.6
2017-10-07T06:58:25.865Z,84.8
2017-10-07T06:59:47.383Z,84.2
2017-10-07T07:00:48.782Z,84.4
2017-10-07T07:02:10.273Z,83.7
2017-10-07T07:03:11.682Z,83.9
2017-10-07T07:04:33.190Z,83.3
2017-10-07T07:05:34.604Z,83.0
2017-10-07T07:06:56.093Z,83.1
2017-10-07T07:07:57.496Z,82.9
2017-10-07T07:09:19.009Z,83.3
2017-10-07T07:10:20.414Z,82.4
2017-10-07T07:11:41.904Z,83.3
2017-10-07T07:12:43.311Z,82.5
2017-10-07T07:14:04.829Z,82.9
2017-10-07T07:15:06.240Z,81.9
2017-10-07T07:16:32.979Z,81.6
2017-10-07T07:17:34.375Z,81.4
2017-10-07T07:18:55.889Z,80.8
2017-10-07T07:19:57.296Z,80.7
2017-10-07T07:21:18.798Z,80.2
2017-10-07T07:22:20.203Z,80.0
2017-10-07T07:23:41.691Z,79.7
2017-10-07T07:24:43.096Z,80.0
2017-10-07T07:26:04.617Z,79.7
2017-10-07T07:27:06.021Z,79.9
2017-10-07T07:28:27.516Z,80.1
2017-10-07T07:29:28.922Z,79.5
2017-10-07T07:30:50.434Z,79.0
2017-10-07T07:31:51.841Z,79.3
2017-10-07T07:33:13.335Z,79.3
2017-10-07T07:34:14.738Z,79.1
2017-10-07T07:35:36.248Z,78.7
2017-10-07T07:36:37.657Z,77.9
2017-10-07T07:37:59.145Z,78.4
2017-10-07T07:39:00.552Z,77.6
2017-10-07T07:40:22.068Z,77.8
2017-10-07T07:41:23.473Z,77.9
2017-10-07T07:42:44.964Z,77.7
2017-10-07T07:43:46.367Z,77.6
2017-10-07T07:45:07.882Z,77.9
2017-10-07T07:46:09.291Z,78.5
2017-10-07T07:47:30.784Z,78.4
2017-10-07T07:48:32.188Z,77.6
2017-10-07T07:49:53.700Z,77.5
2017-10-07T07:50:55.105Z,77.8
2017-10-07T07:52:16.598Z,77.5
2017-10-07T07:53:18.003Z,78.0
2017-10-07T07:54:39.514Z,77.1
2017-10-07T07:55:40.919Z,77.3
2017-10-07T07:57:02.414Z,76.8
2017-10-07T07:58:03.820Z,77.6
2017-10-07T07:59:25.331Z,77.0
2017-10-07T08:00:26.739Z,77.4
2017-10-07T08:01:48.228Z,77.3
2017-10-07T08:02:49.636Z,77.4
2017-10-07T08:04:11.356Z,77.1
2017-10-07T08:05:12.773Z,77.4
2017-10-07T08:06:34.422Z,77.2
2017-10-07T08:07:35.835Z,77.6
2017-10-07T08:08:57.332Z,77.4
2017-10-07T08:09:58.740Z,76.7
2017-10-07T08:11:20.255Z,77.6
2017-10-07T08:12:21.660Z,77.1
2017-10-07T08:13:43.153Z,77.2
2017-10-07T08:14:44.584Z,77.0
2017-10-07T08:16:06.096Z,76.9
2017-10-07T08:17:07.503Z,77.6
2017-10-07T08:18:28.997Z,77.7
2017-10-07T08:19:30.402Z,77.4
2017-10-07T08:20:51.916Z,77.8
2017-10-07T08:21:53.323Z,78.4
2017-10-07T08:23:14.818Z,77.7
2017-10-07T08:24:16.226Z,78.2
2017-10-07T08:25:37.747Z,78.1
2017-10-07T08:26:39.151Z,77.9
2017-10-07T08:28:00.644Z,77.8
2017-10-07T08:29:02.050Z,77.6
2017-10-07T08:30:23.565Z,78.0
2017-10-07T08:31:24.973Z,77.1
2017-10-07T08:32:46.475Z,77.9
2017-10-07T08:33:47.881Z,77.6
2017-10-07T08:35:09.391Z,77.9
2017-10-07T08:36:10.805Z,76.9
2017-10-07T08:37:32.296Z,77.8
2017-10-07T08:38:33.733Z,77.4
2017-10-07T08:39:55.213Z,78.0
2017-10-07T08:40:56.621Z,77.6
2017-10-07T08:42:18.115Z,76.2
2017-10-07T08:43:19.521Z,76.0
2017-10-07T08:44:41.036Z,75.3
2017-10-07T08:45:42.445Z,74.9
2017-10-07T08:47:04.041Z,75.2
2017-10-07T08:48:05.448Z,74.7
2017-10-07T08:49:26.941Z,74.2
2017-10-07T08:50:28.349Z,73.5
2017-10-07T08:51:49.862Z,73.5
2017-10-07T08:52:51.578Z,74.0
2017-10-07T08:54:13.060Z,73.8
2017-10-07T08:55:14.467Z,73.5
2017-10-07T08:56:35.983Z,72.7
2017-10-07T08:57:37.389Z,73.6
2017-10-07T08:58:58.885Z,73.6
2017-10-07T09:00:00.291Z,72.9
2017-10-07T09:01:21.802Z,72.0
2017-10-07T09:02:23.211Z,72.5
2017-10-07T09:03:44.712Z,73.1
2017-10-07T09:04:46.120Z,72.9
2017-10-07T09:06:07.633Z,72.9
2017-10-07T09:07:09.041Z,72.9
2017-10-07T09:08:30.539Z,72.9
2017-10-07T09:09:31.946Z,72.8
2017-10-07T09:10:53.459Z,72.9
2017-10-07T09:11:54.870Z,73.1
2017-10-07T09:13:16.364Z,73.6
2017-10-07T09:14:17.774Z,73.6
2017-10-07T09:15:39.286Z,72.5
2017-10-07T09:16:40.694Z,72.9
2017-10-07T09:18:02.271Z,73.4
2017-10-07T09:19:03.679Z,73.0
2017-10-07T09:20:25.199Z,72.8
2017-10-07T09:21:26.609Z,72.2
2017-10-07T09:22:48.106Z,72.2
2017-10-07T09:23:49.513Z,72.0
2017-10-07T09:25:11.029Z,72.1
2017-10-07T09:26:12.437Z,72.2
2017-10-07T09:27:33.938Z,73.5
2017-10-07T09:28:35.369Z,74.4
2017-10-07T09:29:56.870Z,73.6
2017-10-07T09:30:58.278Z,74.9
2017-10-07T09:32:19.772Z,75.2
2017-10-07T09:33:21.180Z,76.5
2017-10-07T09:34:42.676Z,77.4
2017-10-07T09:35:44.084Z,76.0
2017-10-07T09:37:05.596Z,76.2
2017-10-07T09:38:07.005Z,76.9
2017-10-07T09:39:28.503Z,75.4
2017-10-07T09:40:29.908Z,75.6
2017-10-07T09:41:51.422Z,75.7
2017-10-07T09:42:52.829Z,76.2
2017-10-07T09:44:14.325Z,76.5
2017-10-07T09:45:15.732Z,77.1
2017-10-07T09:46:37.247Z,77.1
2017-10-07T09:47:38.656Z,76.3
2017-10-07T09:49:00.151Z,76.9
2017-10-07T09:50:01.554Z,77.2
2017-10-07T09:51:23.072Z,78.5
2017-10-07T09:52:24.481Z,77.6
2017-10-07T09:53:45.977Z,77.6
2017-10-07T09:54:47.384Z,77.4
2017-10-07T09:56:08.896Z,77.4
2017-10-07T09:57:10.303Z,78.0
2017-10-07T09:58:31.803Z,77.7
2017-10-07T09:59:33.212Z,77.9
2017-10-07T10:00:54.721Z,77.3
2017-10-07T10:01:56.127Z,77.9
2017-10-07T10:03:17.620Z,77.5
2017-10-07T10:04:19.029Z,77.6
2017-10-07T10:05:40.546Z,77.9
2017-10-07T10:06:41.954Z,78.1
2017-10-07T10:08:03.447Z,77.6
2017-10-07T10:09:04.850Z,78.5
2017-10-07T10:10:26.369Z,78.0
2017-10-07T10:11:27.778Z,77.6
2017-10-07T10:12:49.279Z,78.6
2017-10-07T10:13:50.683Z,77.2
2017-10-07T10:15:12.176Z,77.7
2017-10-07T10:16:13.581Z,78.4
2017-10-07T10:17:35.094Z,77.4
2017-10-07T10:18:36.501Z,77.0
2017-10-07T10:19:57.992Z,77.6
2017-10-07T10:20:59.397Z,77.6
2017-10-07T10:22:20.909Z,77.3
2017-10-07T10:23:22.317Z,77.6
2017-10-07T10:24:43.809Z,78.7
2017-10-07T10:25:45.214Z,77.8
2017-10-07T10:27:06.727Z,78.2
2017-10-07T10:28:08.135Z,77.6
2017-10-07T10:29:29.634Z,77.5
2017-10-07T10:30:31.040Z,77.3
2017-10-07T10:31:52.550Z,77.5
2017-10-07T10:32:53.959Z,77.7
2017-10-07T10:34:15.458Z,78.6
2017-10-07T10:35:16.860Z,77.7
2017-10-07T10:36:38.370Z,78.4
2017-10-07T10:37:39.777Z,78.8
2017-10-07T10:39:01.269Z,78.5
2017-10-07T10:40:02.676Z,77.4
2017-10-07T10:41:24.188Z,77.9
2017-10-07T10:42:25.594Z,78.1
2017-10-07T10:43:47.090Z,77.9
2017-10-07T10:44:48.496Z,78.0
2017-10-07T10:46:10.011Z,78.3
2017-10-07T10:47:11.417Z,79.1
2017-10-07T10:48:32.913Z,78.1
2017-10-07T10:49:34.318Z,78.0
2017-10-07T10:50:55.832Z,78.6
2017-10-07T10:51:57.240Z,78.5
2017-10-07T10:53:18.734Z,79.4
2017-10-07T10:54:20.140Z,79.2
2017-10-07T10:55:41.638Z,79.0
2017-10-07T10:56:43.043Z,79.2
2017-10-07T10:58:04.555Z,78.7
2017-10-07T10:59:05.966Z,79.1
2017-10-07T11:00:27.456Z,79.2
2017-10-07T11:01:28.866Z,79.9
2017-10-07T11:02:50.385Z,79.5
2017-10-07T11:03:51.793Z,79.1
2017-10-07T11:05:13.294Z,78.9
2017-10-07T11:06:14.699Z,79.1
2017-10-07T11:07:36.213Z,79.5
2017-10-07T11:08:37.623Z,79.1
2017-10-07T11:09:59.117Z,79.2
2017-10-07T11:11:00.522Z,78.1
2017-10-07T11:12:22.035Z,78.9
2017-10-07T11:13:23.444Z,79.2
2017-10-07T11:14:44.942Z,79.1
2017-10-07T11:15:46.347Z,79.3
2017-10-07T11:17:07.865Z,80.0
2017-10-07T11:18:09.272Z,80.4
2017-10-07T11:19:31.258Z,81.0
2017-10-07T11:20:32.665Z,82.6
2017-10-07T11:21:54.179Z,83.2
2017-10-07T11:22:55.679Z,83.2
2017-10-07T11:24:17.745Z,84.0
2017-10-07T11:25:19.153Z,84.5
2017-10-07T11:26:40.665Z,85.7
2017-10-07T11:27:42.073Z,85.5
2017-10-07T11:29:03.564Z,85.6
2017-10-07T11:30:04.968Z,85.9
2017-10-07T11:31:26.482Z,86.0
2017-10-07T11:32:27.890Z,86.6
2017-10-07T11:33:49.383Z,86.6
2017-10-07T11:34:50.790Z,86.8
2017-10-07T11:36:12.304Z,87.2
2017-10-07T11:37:13.715Z,87.2
2017-10-07T11:38:35.208Z,87.6
2017-10-07T11:39:36.611Z,87.4
2017-10-07T11:40:58.110Z,87.3
2017-10-07T11:41:59.597Z,87.3
2017-10-07T11:43:21.332Z,87.3
2017-10-07T11:44:22.737Z,87.1
2017-10-07T11:45:44.234Z,87.2
2017-10-07T11:46:45.637Z,87.3
2017-10-07T11:48:07.152Z,87.2
2017-10-07T11:49:08.557Z,87.2
2017-10-07T11:50:30.452Z,87.3
2017-10-07T11:51:31.864Z,87.3
2017-10-07T11:52:53.380Z,88.4
2017-10-07T11:53:54.786Z,88.4
2017-10-07T11:55:16.279Z,88.4
2017-10-07T11:56:17.684Z,88.6
2017-10-07T11:57:39.192Z,88.4
2017-10-07T11:58:40.600Z,88.1
2017-10-07T12:00:02.096Z,88.3
2017-10-07T12:01:03.499Z,87.8
2017-10-07T12:02:25.033Z,88.3
2017-10-07T12:03:26.436Z,88.3
2017-10-07T12:04:48.152Z,88.3
2017-10-07T12:05:49.627Z,88.1
2017-10-07T12:07:11.165Z,88.0
2017-10-07T12:08:12.818Z,88.2
2017-10-07T12:09:35.759Z,88.3
2017-10-07T12:10:37.336Z,88.4
2017-10-07T12:12:00.936Z,88.3
2017-10-07T12:13:02.431Z,88.3
2017-10-07T12:14:23.934Z,89.2
2017-10-07T12:15:25.344Z,89.0
2017-10-07T12:16:46.860Z,90.0
2017-10-07T12:17:48.265Z,90.1
2017-10-07T12:19:09.765Z,89.6
2017-10-07T12:20:11.598Z,89.9
2017-10-07T12:21:33.086Z,90.3
2017-10-07T12:22:34.493Z,90.3
2017-10-07T12:23:55.980Z,90.1
2017-10-07T12:24:57.430Z,90.4
2017-10-07T12:26:19.339Z,90.0
2017-10-07T12:27:21.088Z,90.4
2017-10-07T12:28:44.928Z,90.5
2017-10-07T12:29:46.348Z,89.7
2017-10-07T12:31:07.847Z,90.3
2017-10-07T12:32:09.250Z,90.4
2017-10-07T12:33:30.765Z,89.9
2017-10-07T12:34:32.170Z,89.9
2017-10-07T12:35:53.658Z,89.9
2017-10-07T12:36:55.583Z,89.5
2017-10-07T12:38:17.111Z,89.6
2017-10-07T12:39:18.517Z,89.7
2017-10-07T12:40:40.017Z,89.8
2017-10-07T12:41:41.420Z,89.8
2017-10-07T12:43:02.998Z,90.2
2017-10-07T12:44:04.462Z,90.0
2017-10-07T12:45:26.041Z,89.8
2017-10-07T12:46:27.788Z,89.9
2017-10-07T12:47:49.400Z,89.8
2017-10-07T12:48:50.843Z,90.0
2017-10-07T12:50:12.400Z,89.9
2017-10-07T12:51:13.837Z,90.0
2017-10-07T12:52:35.593Z,89.6
2017-10-07T12:53:36.987Z,90.0
2017-10-07T12:54:58.478Z,89.9
2017-10-07T12:55:59.916Z,90.4
2017-10-07T12:57:21.440Z,90.4
2017-10-07T12:58:22.900Z,90.1
2017-10-07T12:59:44.480Z,90.5
2017-10-07T13:00:45.983Z,89.8
2017-10-07T13:02:07.500Z,89.5
2017-10-07T13:03:09.425Z,89.6
2017-10-07T13:04:31.084Z,89.8
2017-10-07T13:05:32.492Z,89.7
2017-10-07T13:06:54.009Z,89.5
2017-10-07T13:07:55.411Z,89.8
2017-10-07T13:09:17.399Z,90.0
2017-10-07T13:10:18.804Z,90.0
2017-10-07T13:11:40.791Z,90.0
2017-10-07T13:12:42.219Z,90.0
2017-10-07T13:14:03.732Z,91.1
2017-10-07T13:15:05.142Z,90.4
2017-10-07T13:16:26.658Z,90.3
2017-10-07T13:17:28.038Z,90.6
2017-10-07T13:18:50.296Z,90.4
2017-10-07T13:19:51.741Z,90.5
2017-10-07T13:21:13.241Z,91.1
2017-10-07T13:22:14.647Z,90.9
2017-10-07T13:23:36.154Z,90.6
2017-10-07T13:24:37.563Z,90.7
2017-10-07T13:25:59.058Z,91.5
2017-10-07T13:27:00.462Z,91.3
2017-10-07T13:28:21.969Z,91.1
2017-10-07T13:29:23.374Z,90.6
2017-10-07T13:30:44.873Z,90.7
2017-10-07T13:31:46.278Z,90.5
2017-10-07T13:33:07.789Z,91.1
2017-10-07T13:34:09.190Z,90.9
2017-10-07T13:35:30.683Z,91.0
2017-10-07T13:36:32.110Z,91.1
2017-10-07T13:37:53.632Z,90.5
2017-10-07T13:38:55.039Z,90.5
2017-10-07T13:40:16.538Z,91.0
2017-10-07T13:41:17.940Z,90.9
2017-10-07T13:42:39.450Z,91.1
2017-10-07T13:43:40.856Z,90.9
2017-10-07T13:45:02.345Z,90.9
2017-10-07T13:46:03.750Z,90.5
2017-10-07T13:47:25.263Z,90.9
2017-10-07T13:48:27.327Z,90.7
2017-10-07T13:49:48.838Z,90.6
2017-10-07T13:50:50.250Z,91.0
2017-10-07T13:52:11.780Z,91.5
2017-10-07T13:53:13.183Z,91.1
2017-10-07T13:54:34.673Z,91.6
2017-10-07T13:55:36.078Z,91.8
2017-10-07T13:56:57.571Z,91.8
2017-10-07T13:57:58.975Z,91.7
2017-10-07T13:59:20.491Z,91.8
2017-10-07T14:00:21.896Z,91.7
2017-10-07T14:01:43.410Z,91.7
2017-10-07T14:02:44.814Z,91.4
2017-10-07T14:04:06.323Z,92.0
2017-10-07T14:05:07.730Z,92.3
2017-10-07T14:06:29.225Z,92.2
2017-10-07T14:07:30.629Z,92.2
2017-10-07T14:08:52.140Z,93.0
2017-10-07T14:09:53.546Z,92.4
2017-10-07T14:11:15.040Z,92.5
2017-10-07T14:12:16.445Z,92.7
2017-10-07T14:13:37.953Z,92.5
2017-10-07T14:14:39.365Z,92.5
2017-10-07T14:16:00.853Z,92.2
2017-10-07T14:17:02.258Z,92.2
2017-10-07T14:18:23.789Z,93.0
2017-10-07T14:19:25.193Z,92.7
2017-10-07T14:20:46.685Z,92.6
2017-10-07T14:21:48.155Z,92.5
2017-10-07T14:23:10.076Z,92.9
2017-10-07T14:24:11.841Z,92.5
2017-10-07T14:25:33.382Z,92.9
2017-10-07T14:26:34.846Z,93.1
2017-10-07T14:27:57.930Z,93.1
2017-10-07T14:28:59.336Z,92.7
2017-10-07T14:30:20.861Z,92.7
2017-10-07T14:31:22.268Z,92.9
2017-10-07T14:32:43.860Z,93.1
2017-10-07T14:33:45.407Z,92.6
2017-10-07T14:35:07.237Z,92.6
2017-10-07T14:36:08.645Z,92.5
2017-10-07T14:37:30.262Z,92.5
2017-10-07T14:38:31.700Z,92.9
2017-10-07T14:39:53.279Z,92.3
2017-10-07T14:40:54.681Z,92.2
2017-10-07T14:42:16.254Z,92.3
2017-10-07T14:43:17.673Z,92.3
2017-10-07T14:44:39.193Z,92.1
2017-10-07T14:45:40.642Z,91.6
2017-10-07T14:47:02.839Z,91.9
2017-10-07T14:48:04.246Z,92.0
2017-10-07T14:49:25.818Z,92.2
2017-10-07T14:50:27.231Z,92.4
2017-10-07T14:51:48.756Z,92.3
2017-10-07T14:52:50.160Z,91.9
2017-10-07T14:54:12.299Z,92.3
2017-10-07T14:55:13.705Z,92.8
2017-10-07T14:56:35.286Z,92.6
2017-10-07T14:57:36.689Z,92.7
2017-10-07T14:58:58.419Z,92.8
2017-10-07T14:59:59.929Z,92.6
2017-10-07T15:01:21.483Z,92.8
2017-10-07T15:02:22.952Z,92.8
2017-10-07T15:03:44.565Z,92.8
2017-10-07T15:04:45.973Z,93.3
2017-10-07T15:06:07.502Z,93.0
2017-10-07T15:07:08.906Z,93.2
2017-10-07T15:08:30.958Z,93.1
2017-10-07T15:09:32.362Z,92.9
2017-10-07T15:10:55.724Z,92.7
2017-10-07T15:11:57.146Z,92.5
2017-10-07T15:13:18.701Z,92.1
2017-10-07T15:14:20.572Z,92.2
2017-10-07T15:15:42.143Z,92.1
2017-10-07T15:16:43.550Z,91.7
2017-10-07T15:18:05.631Z,91.8
2017-10-07T15:19:07.039Z,91.9
2017-10-07T15:20:29.069Z,92.2
2017-10-07T15:21:30.475Z,92.2
2017-10-07T15:22:52.022Z,92.1
2017-10-07T15:23:53.773Z,92.4
2017-10-07T15:25:15.399Z,92.3
2017-10-07T15:26:16.801Z,92.1
2017-10-07T15:27:38.334Z,92.4
2017-10-07T15:28:39.738Z,92.5
2017-10-07T15:30:01.328Z,92.7
2017-10-07T15:31:02.729Z,92.1
2017-10-07T15:32:24.235Z,92.5
2017-10-07T15:33:25.640Z,92.6
2017-10-07T15:34:47.208Z,92.7
2017-10-07T15:35:48.631Z,92.8
2017-10-07T15:37:11.731Z,93.1
2017-10-07T15:38:13.175Z,92.9
2017-10-07T15:39:34.878Z,92.9
2017-10-07T15:40:36.288Z,93.0
2017-10-07T15:41:59.323Z,93.5
2017-10-07T15:43:00.728Z,93.5
2017-10-07T15:44:22.284Z,93.4
2017-10-07T15:45:23.688Z,93.2
2017-10-07T15:46:45.380Z,93.3
2017-10-07T15:47:46.794Z,93.4
2017-10-07T15:49:08.391Z,93.3
2017-10-07T15:50:09.795Z,92.9
2017-10-07T15:51:31.323Z,94.3